Virginia, South Australia

11:53 PM ACST on April 21, 2015 (GMT +0930)
St Kilda | | Change Station
CLOSE
Current Station
Personal Weather Station
Location: St Kilda, SA
Elevation: 10 ft
Nearby Weather Stations

Elev 10 ft 34.74 °S, 138.53 °E | Updated 55 seconds ago

Partly Cloudy
Partly Cloudy
54.0 °F
Feels Like 54.0 °F
N
4.4
Wind Variable Wind from SSE
Gusts 5.0 mph

Today
High -- | Low -- °F
--% Chance of Precip.
Yesterday
High -- | Low -- °F
Precip. -- in
6:43 AM 5:45 PM
Waxing Crescent, 10% visible
Pressure 30.36 in
Visibility 6.2 miles
Clouds Few 2300 ft
Dew Point 49 °F
Humidity 84%
Rainfall in
Snow Depth Not available.
UV 0 out of 12
Pollen Not available.
Air Quality Not available.
Flu Activity Not available.
METAR YPAD 211400Z 20006KT 9999 FEW023 12/09 Q1028 NOSIG

More Conditions Fewer Conditions

Pressure 30.36 in
Visibility 6.2 miles
Clouds Few 2300 ft
Dew Point 49 °F
Humidity 84%
Rainfall in
Snow Depth Not available.
UV 0 out of 12
Pollen Not available.
Air Quality Not available.
Flu Activity Not available.
METAR YPAD 211400Z 20006KT 9999 FEW023 12/09 Q1028 NOSIG

More Conditions Fewer Conditions

10-Day Weather Forecast

Almanac

Astronomy

Apr. 21, 2015 Rise Set
Actual Time
Civil Twilight
Nautical Twilight
Astronomical Twilight
Moon
Length of Visible Light
Length of Day
Tomorrow will be .
, % of the Moon is Illuminated

Today's Extremes

Country Highs Country Lows

Community

WunderPhotos

Upload Photos

1,815,402 photos uploaded!

WunderBlogs® & News

Nearby

Air Quality

  Air Quality AQ Index Pollutant
Not available.

Snow Depth

Station Depth Elevation

Earthquake Activity

City Distance Mag. Time & Date
Minimum magnitude displayed is 2.5.

Coastal Water Temperatures

Place Temperature

Stations

Nearby Weather Stations

Station Location Temp. Windchill Dew Point Humidity Wind Precip. Elev Updated Type